sensor_id;sensor_type;location;lat;lon;timestamp;temperature;humidity
17053;DHT22;8643;48.824;11.422;2023-10-31T00:00:02;11.50;99.90
17053;DHT22;8643;48.824;11.422;2023-10-31T00:02:32;11.50;99.90
17053;DHT22;8643;48.824;11.422;2023-10-31T00:05:01;11.40;99.90
17053;DHT22;8643;48.824;11.422;2023-10-31T00:07:30;11.40;99.90
17053;DHT22;8643;48.824;11.422;2023-10-31T00:09:58;11.40;99.90
17053;DHT22;8643;48.824;11.422;2023-10-31T00:12:27;11.30;99.90
17053;DHT22;8643;48.824;11.422;2023-10-31T00:14:55;11.30;99.90
17053;DHT22;8643;48.824;11.422;2023-10-31T00:17:23;11.30;99.90
17053;DHT22;8643;48.824;11.422;2023-10-31T00:19:53;11.30;99.90
17053;DHT22;8643;48.824;11.422;2023-10-31T00:22:23;11.20;99.90
17053;DHT22;8643;48.824;11.422;2023-10-31T00:24:52;11.20;99.90
17053;DHT22;8643;48.824;11.422;2023-10-31T00:27:20;11.20;99.90
17053;DHT22;8643;48.824;11.422;2023-10-31T00:29:49;11.20;99.90
17053;DHT22;8643;48.824;11.422;2023-10-31T00:32:17;11.10;99.90
17053;DHT22;8643;48.824;11.422;2023-10-31T00:34:46;11.10;99.90
17053;DHT22;8643;48.824;11.422;2023-10-31T00:37:17;11.10;99.90
17053;DHT22;8643;48.824;11.422;2023-10-31T00:39:45;11.10;99.90
17053;DHT22;8643;48.824;11.422;2023-10-31T00:42:14;11.10;99.90
17053;DHT22;8643;48.824;11.422;2023-10-31T00:44:42;11.10;99.90
17053;DHT22;8643;48.824;11.422;2023-10-31T00:47:11;11.10;99.90
17053;DHT22;8643;48.824;11.422;2023-10-31T00:49:39;11.10;99.90
17053;DHT22;8643;48.824;11.422;2023-10-31T00:52:07;11.10;99.90
17053;DHT22;8643;48.824;11.422;2023-10-31T00:54:38;11.10;99.90
17053;DHT22;8643;48.824;11.422;2023-10-31T00:57:06;11.10;99.90
17053;DHT22;8643;48.824;11.422;2023-10-31T00:59:35;11.00;99.90
17053;DHT22;8643;48.824;11.422;2023-10-31T01:02:04;11.00;99.90
17053;DHT22;8643;48.824;11.422;2023-10-31T01:04:33;11.00;99.90
17053;DHT22;8643;48.824;11.422;2023-10-31T01:07:02;12.70;99.90
17053;DHT22;8643;48.824;11.422;2023-10-31T01:09:31;11.00;99.90
17053;DHT22;8643;48.824;11.422;2023-10-31T01:12:01;11.00;99.90
17053;DHT22;8643;48.824;11.422;2023-10-31T01:14:29;11.00;99.90
17053;DHT22;8643;48.824;11.422;2023-10-31T01:16:57;11.00;99.90
17053;DHT22;8643;48.824;11.422;2023-10-31T01:19:26;11.00;99.90
17053;DHT22;8643;48.824;11.422;2023-10-31T01:21:54;10.90;99.90
17053;DHT22;8643;48.824;11.422;2023-10-31T01:24:23;10.90;99.90
17053;DHT22;8643;48.824;11.422;2023-10-31T01:26:51;10.90;99.90
17053;DHT22;8643;48.824;11.422;2023-10-31T01:29:21;10.90;99.90
17053;DHT22;8643;48.824;11.422;2023-10-31T01:31:50;10.90;99.90
17053;DHT22;8643;48.824;11.422;2023-10-31T01:34:27;10.90;99.90
17053;DHT22;8643;48.824;11.422;2023-10-31T01:36:56;10.90;99.90
17053;DHT22;8643;48.824;11.422;2023-10-31T01:39:24;10.90;99.90
17053;DHT22;8643;48.824;11.422;2023-10-31T01:41:53;10.90;99.90
17053;DHT22;8643;48.824;11.422;2023-10-31T01:44:23;10.90;99.90
17053;DHT22;8643;48.824;11.422;2023-10-31T01:46:51;10.80;99.90
17053;DHT22;8643;48.824;11.422;2023-10-31T01:49:20;10.80;99.90
17053;DHT22;8643;48.824;11.422;2023-10-31T01:51:50;10.70;99.90
17053;DHT22;8643;48.824;11.422;2023-10-31T01:54:19;10.80;99.90
17053;DHT22;8643;48.824;11.422;2023-10-31T01:56:47;10.70;99.90
17053;DHT22;8643;48.824;11.422;2023-10-31T01:59:18;10.70;99.90
17053;DHT22;8643;48.824;11.422;2023-10-31T02:01:48;10.70;99.90
17053;DHT22;8643;48.824;11.422;2023-10-31T02:04:18;10.60;99.90
17053;DHT22;8643;48.824;11.422;2023-10-31T02:06:46;10.60;99.90
17053;DHT22;8643;48.824;11.422;2023-10-31T02:09:15;9.70;99.90
17053;DHT22;8643;48.824;11.422;2023-10-31T02:11:43;10.60;99.90
17053;DHT22;8643;48.824;11.422;2023-10-31T02:14:11;10.60;99.90
17053;DHT22;8643;48.824;11.422;2023-10-31T02:16:40;10.50;99.90
17053;DHT22;8643;48.824;11.422;2023-10-31T02:19:11;10.50;99.90
17053;DHT22;8643;48.824;11.422;2023-10-31T02:21:43;10.60;99.90
17053;DHT22;8643;48.824;11.422;2023-10-31T02:24:12;10.60;99.90
17053;DHT22;8643;48.824;11.422;2023-10-31T02:26:40;10.50;99.90
17053;DHT22;8643;48.824;11.422;2023-10-31T02:29:09;10.50;99.90
17053;DHT22;8643;48.824;11.422;2023-10-31T02:31:38;10.50;99.90
17053;DHT22;8643;48.824;11.422;2023-10-31T02:34:07;10.50;99.90
17053;DHT22;8643;48.824;11.422;2023-10-31T02:36:35;10.40;99.90
17053;DHT22;8643;48.824;11.422;2023-10-31T02:39:05;10.40;99.90
17053;DHT22;8643;48.824;11.422;2023-10-31T02:41:33;10.40;99.90
17053;DHT22;8643;48.824;11.422;2023-10-31T02:44:02;10.40;99.90
17053;DHT22;8643;48.824;11.422;2023-10-31T02:46:30;10.40;99.90
17053;DHT22;8643;48.824;11.422;2023-10-31T02:48:59;10.40;99.90
17053;DHT22;8643;48.824;11.422;2023-10-31T02:51:27;10.40;99.90
17053;DHT22;8643;48.824;11.422;2023-10-31T02:53:55;10.30;99.90
17053;DHT22;8643;48.824;11.422;2023-10-31T02:56:25;9.90;99.90
17053;DHT22;8643;48.824;11.422;2023-10-31T02:58:54;10.30;99.90
17053;DHT22;8643;48.824;11.422;2023-10-31T03:01:22;10.30;99.90
17053;DHT22;8643;48.824;11.422;2023-10-31T03:03:51;10.30;99.90
17053;DHT22;8643;48.824;11.422;2023-10-31T03:06:19;10.30;99.90
17053;DHT22;8643;48.824;11.422;2023-10-31T03:08:48;10.30;99.90
17053;DHT22;8643;48.824;11.422;2023-10-31T03:11:23;10.30;99.90
17053;DHT22;8643;48.824;11.422;2023-10-31T03:13:54;10.30;99.90
17053;DHT22;8643;48.824;11.422;2023-10-31T03:16:24;10.30;99.90
17053;DHT22;8643;48.824;11.422;2023-10-31T03:18:52;10.30;99.90
17053;DHT22;8643;48.824;11.422;2023-10-31T03:23:50;10.30;99.90
17053;DHT22;8643;48.824;11.422;2023-10-31T03:26:20;10.30;99.90
17053;DHT22;8643;48.824;11.422;2023-10-31T03:28:49;10.30;99.90
17053;DHT22;8643;48.824;11.422;2023-10-31T03:31:19;10.30;99.90
17053;DHT22;8643;48.824;11.422;2023-10-31T03:33:48;10.20;99.90
17053;DHT22;8643;48.824;11.422;2023-10-31T03:36:18;10.30;99.90
17053;DHT22;8643;48.824;11.422;2023-10-31T03:41:16;10.30;99.90
17053;DHT22;8643;48.824;11.422;2023-10-31T03:43:45;10.30;99.90
17053;DHT22;8643;48.824;11.422;2023-10-31T03:46:14;10.20;99.90
17053;DHT22;8643;48.824;11.422;2023-10-31T03:48:43;10.20;99.90
17053;DHT22;8643;48.824;11.422;2023-10-31T03:51:12;10.30;99.90
17053;DHT22;8643;48.824;11.422;2023-10-31T03:53:40;10.20;99.90
17053;DHT22;8643;48.824;11.422;2023-10-31T03:56:09;10.20;99.90
17053;DHT22;8643;48.824;11.422;2023-10-31T03:58:40;10.20;99.90
17053;DHT22;8643;48.824;11.422;2023-10-31T04:01:09;10.20;99.90
17053;DHT22;8643;48.824;11.422;2023-10-31T04:03:38;10.20;99.90
17053;DHT22;8643;48.824;11.422;2023-10-31T04:06:08;10.20;99.90
17053;DHT22;8643;48.824;11.422;2023-10-31T04:08:36;10.10;99.90
17053;DHT22;8643;48.824;11.422;2023-10-31T04:11:05;10.20;99.90
17053;DHT22;8643;48.824;11.422;2023-10-31T04:13:34;10.10;99.90
17053;DHT22;8643;48.824;11.422;2023-10-31T04:16:03;10.00;99.90
17053;DHT22;8643;48.824;11.422;2023-10-31T04:18:32;10.00;99.90
17053;DHT22;8643;48.824;11.422;2023-10-31T04:21:00;10.00;99.90
17053;DHT22;8643;48.824;11.422;2023-10-31T04:23:30;9.90;99.90
17053;DHT22;8643;48.824;11.422;2023-10-31T04:25:59;9.90;99.90
17053;DHT22;8643;48.824;11.422;2023-10-31T04:28:27;9.80;99.90
17053;DHT22;8643;48.824;11.422;2023-10-31T04:30:56;9.80;99.90
17053;DHT22;8643;48.824;11.422;2023-10-31T04:33:24;9.80;99.90
17053;DHT22;8643;48.824;11.422;2023-10-31T04:35:53;9.70;99.90
17053;DHT22;8643;48.824;11.422;2023-10-31T04:38:21;9.70;99.90
17053;DHT22;8643;48.824;11.422;2023-10-31T04:40:51;9.70;99.90
17053;DHT22;8643;48.824;11.422;2023-10-31T04:43:19;9.70;99.90
17053;DHT22;8643;48.824;11.422;2023-10-31T04:45:48;9.60;99.90
17053;DHT22;8643;48.824;11.422;2023-10-31T04:48:17;9.70;99.90
17053;DHT22;8643;48.824;11.422;2023-10-31T04:50:45;9.70;99.90
17053;DHT22;8643;48.824;11.422;2023-10-31T04:53:13;9.70;99.90
17053;DHT22;8643;48.824;11.422;2023-10-31T04:55:42;9.60;99.90
17053;DHT22;8643;48.824;11.422;2023-10-31T04:58:12;9.60;99.90
17053;DHT22;8643;48.824;11.422;2023-10-31T05:00:41;9.60;99.90
17053;DHT22;8643;48.824;11.422;2023-10-31T05:03:10;9.60;99.90
17053;DHT22;8643;48.824;11.422;2023-10-31T05:05:39;9.50;99.90
17053;DHT22;8643;48.824;11.422;2023-10-31T05:08:08;9.50;99.90
17053;DHT22;8643;48.824;11.422;2023-10-31T05:10:37;9.50;99.90
17053;DHT22;8643;48.824;11.422;2023-10-31T05:15:35;9.50;99.90
17053;DHT22;8643;48.824;11.422;2023-10-31T05:18:04;9.50;99.90
17053;DHT22;8643;48.824;11.422;2023-10-31T05:20:33;9.40;99.90
17053;DHT22;8643;48.824;11.422;2023-10-31T05:23:01;9.40;99.90
17053;DHT22;8643;48.824;11.422;2023-10-31T05:25:30;9.40;99.90
17053;DHT22;8643;48.824;11.422;2023-10-31T05:27:59;9.40;99.90
17053;DHT22;8643;48.824;11.422;2023-10-31T05:30:27;9.50;99.90
17053;DHT22;8643;48.824;11.422;2023-10-31T05:32:57;9.50;99.90
17053;DHT22;8643;48.824;11.422;2023-10-31T05:35:25;9.50;99.90
17053;DHT22;8643;48.824;11.422;2023-10-31T05:37:54;9.50;99.90
17053;DHT22;8643;48.824;11.422;2023-10-31T05:40:22;9.50;99.90
17053;DHT22;8643;48.824;11.422;2023-10-31T05:42:52;9.50;99.90
17053;DHT22;8643;48.824;11.422;2023-10-31T05:45:20;9.40;99.90
17053;DHT22;8643;48.824;11.422;2023-10-31T05:47:48;9.30;99.90
17053;DHT22;8643;48.824;11.422;2023-10-31T05:50:18;9.30;99.90
17053;DHT22;8643;48.824;11.422;2023-10-31T05:52:47;9.30;99.90
17053;DHT22;8643;48.824;11.422;2023-10-31T05:55:16;9.30;99.90
17053;DHT22;8643;48.824;11.422;2023-10-31T05:57:44;9.20;99.90
17053;DHT22;8643;48.824;11.422;2023-10-31T06:00:14;9.20;99.90
17053;DHT22;8643;48.824;11.422;2023-10-31T06:02:44;9.10;99.90
17053;DHT22;8643;48.824;11.422;2023-10-31T06:05:12;9.10;99.90
17053;DHT22;8643;48.824;11.422;2023-10-31T06:07:42;9.10;99.90
17053;DHT22;8643;48.824;11.422;2023-10-31T06:10:11;9.10;99.90
17053;DHT22;8643;48.824;11.422;2023-10-31T06:12:39;9.10;99.90
17053;DHT22;8643;48.824;11.422;2023-10-31T06:15:09;9.10;99.90
17053;DHT22;8643;48.824;11.422;2023-10-31T06:17:38;9.20;99.90
17053;DHT22;8643;48.824;11.422;2023-10-31T06:20:08;9.20;99.90
17053;DHT22;8643;48.824;11.422;2023-10-31T06:22:37;9.20;99.90
17053;DHT22;8643;48.824;11.422;2023-10-31T06:25:07;9.20;99.90
17053;DHT22;8643;48.824;11.422;2023-10-31T06:27:36;9.20;99.90
17053;DHT22;8643;48.824;11.422;2023-10-31T06:30:05;9.20;99.90
17053;DHT22;8643;48.824;11.422;2023-10-31T06:32:50;9.30;99.90
17053;DHT22;8643;48.824;11.422;2023-10-31T06:35:19;9.30;99.90
17053;DHT22;8643;48.824;11.422;2023-10-31T06:37:47;9.50;99.90
17053;DHT22;8643;48.824;11.422;2023-10-31T06:40:17;9.50;99.90
17053;DHT22;8643;48.824;11.422;2023-10-31T06:42:45;9.60;99.90
17053;DHT22;8643;48.824;11.422;2023-10-31T06:45:14;9.70;99.90
17053;DHT22;8643;48.824;11.422;2023-10-31T06:47:42;9.70;99.90
17053;DHT22;8643;48.824;11.422;2023-10-31T06:50:11;9.80;99.90
17053;DHT22;8643;48.824;11.422;2023-10-31T06:52:41;9.80;99.90
17053;DHT22;8643;48.824;11.422;2023-10-31T06:55:10;9.80;99.90
17053;DHT22;8643;48.824;11.422;2023-10-31T06:57:40;9.90;99.90
17053;DHT22;8643;48.824;11.422;2023-10-31T07:00:11;9.90;99.90
17053;DHT22;8643;48.824;11.422;2023-10-31T07:02:40;9.90;99.90
17053;DHT22;8643;48.824;11.422;2023-10-31T07:05:09;9.90;99.90
17053;DHT22;8643;48.824;11.422;2023-10-31T07:07:37;9.80;99.90
17053;DHT22;8643;48.824;11.422;2023-10-31T07:10:07;9.80;99.90
17053;DHT22;8643;48.824;11.422;2023-10-31T07:12:36;9.80;99.90
17053;DHT22;8643;48.824;11.422;2023-10-31T07:15:07;9.90;99.90
17053;DHT22;8643;48.824;11.422;2023-10-31T07:17:36;9.90;99.90
17053;DHT22;8643;48.824;11.422;2023-10-31T07:20:06;9.90;99.90
17053;DHT22;8643;48.824;11.422;2023-10-31T07:22:35;9.90;99.90
17053;DHT22;8643;48.824;11.422;2023-10-31T07:25:04;9.90;99.90
17053;DHT22;8643;48.824;11.422;2023-10-31T07:27:34;9.90;99.90
17053;DHT22;8643;48.824;11.422;2023-10-31T07:30:02;9.90;99.90
17053;DHT22;8643;48.824;11.422;2023-10-31T07:32:34;9.90;99.90
17053;DHT22;8643;48.824;11.422;2023-10-31T07:35:03;9.90;99.90
17053;DHT22;8643;48.824;11.422;2023-10-31T07:37:32;10.00;99.90
17053;DHT22;8643;48.824;11.422;2023-10-31T07:40:03;10.00;99.90
17053;DHT22;8643;48.824;11.422;2023-10-31T07:42:32;10.00;99.90
17053;DHT22;8643;48.824;11.422;2023-10-31T07:45:01;10.10;99.90
17053;DHT22;8643;48.824;11.422;2023-10-31T07:47:29;10.10;99.90
17053;DHT22;8643;48.824;11.422;2023-10-31T07:49:59;10.10;99.90
17053;DHT22;8643;48.824;11.422;2023-10-31T07:52:28;10.10;99.90
17053;DHT22;8643;48.824;11.422;2023-10-31T07:54:56;10.20;99.90
17053;DHT22;8643;48.824;11.422;2023-10-31T07:57:25;10.20;99.90
17053;DHT22;8643;48.824;11.422;2023-10-31T07:59:53;10.20;99.90
17053;DHT22;8643;48.824;11.422;2023-10-31T08:02:21;10.20;99.90
17053;DHT22;8643;48.824;11.422;2023-10-31T08:04:50;10.30;99.90
17053;DHT22;8643;48.824;11.422;2023-10-31T08:07:20;10.40;99.90
17053;DHT22;8643;48.824;11.422;2023-10-31T08:09:50;10.30;99.90
17053;DHT22;8643;48.824;11.422;2023-10-31T08:12:18;10.40;99.90
17053;DHT22;8643;48.824;11.422;2023-10-31T08:14:47;10.50;99.90
17053;DHT22;8643;48.824;11.422;2023-10-31T08:17:16;10.50;99.90
17053;DHT22;8643;48.824;11.422;2023-10-31T08:19:45;10.60;99.90
17053;DHT22;8643;48.824;11.422;2023-10-31T08:22:14;10.60;99.90
17053;DHT22;8643;48.824;11.422;2023-10-31T08:24:45;10.70;99.90
17053;DHT22;8643;48.824;11.422;2023-10-31T08:27:14;10.70;99.90
17053;DHT22;8643;48.824;11.422;2023-10-31T08:29:43;10.70;99.90
17053;DHT22;8643;48.824;11.422;2023-10-31T08:32:11;10.70;99.90
17053;DHT22;8643;48.824;11.422;2023-10-31T08:34:40;10.70;99.90
17053;DHT22;8643;48.824;11.422;2023-10-31T08:37:09;10.70;99.90
17053;DHT22;8643;48.824;11.422;2023-10-31T08:39:38;10.70;99.90
17053;DHT22;8643;48.824;11.422;2023-10-31T08:42:08;10.70;99.90
17053;DHT22;8643;48.824;11.422;2023-10-31T08:44:40;10.80;99.90
17053;DHT22;8643;48.824;11.422;2023-10-31T08:47:09;11.00;99.90
17053;DHT22;8643;48.824;11.422;2023-10-31T08:49:39;11.20;99.90
17053;DHT22;8643;48.824;11.422;2023-10-31T08:52:08;11.30;99.90
17053;DHT22;8643;48.824;11.422;2023-10-31T08:54:36;11.30;99.90
17053;DHT22;8643;48.824;11.422;2023-10-31T08:57:05;11.50;99.90
17053;DHT22;8643;48.824;11.422;2023-10-31T08:59:35;11.40;99.90
17053;DHT22;8643;48.824;11.422;2023-10-31T09:02:04;11.60;99.90
17053;DHT22;8643;48.824;11.422;2023-10-31T09:04:32;11.60;99.90
17053;DHT22;8643;48.824;11.422;2023-10-31T09:07:02;11.50;99.90
17053;DHT22;8643;48.824;11.422;2023-10-31T09:09:30;11.40;99.90
17053;DHT22;8643;48.824;11.422;2023-10-31T09:11:59;11.30;99.90
17053;DHT22;8643;48.824;11.422;2023-10-31T09:14:27;11.20;99.90
17053;DHT22;8643;48.824;11.422;2023-10-31T09:16:58;11.20;99.90
17053;DHT22;8643;48.824;11.422;2023-10-31T09:19:26;11.30;99.90
17053;DHT22;8643;48.824;11.422;2023-10-31T09:21:55;11.40;99.90
17053;DHT22;8643;48.824;11.422;2023-10-31T09:24:24;11.40;99.90
17053;DHT22;8643;48.824;11.422;2023-10-31T09:26:52;11.40;99.90
17053;DHT22;8643;48.824;11.422;2023-10-31T09:29:22;11.30;99.90
17053;DHT22;8643;48.824;11.422;2023-10-31T09:31:57;11.20;99.90
17053;DHT22;8643;48.824;11.422;2023-10-31T09:34:26;11.10;99.90
17053;DHT22;8643;48.824;11.422;2023-10-31T09:36:55;11.10;99.90
17053;DHT22;8643;48.824;11.422;2023-10-31T09:39:23;11.10;99.90
17053;DHT22;8643;48.824;11.422;2023-10-31T09:41:52;11.10;99.90
17053;DHT22;8643;48.824;11.422;2023-10-31T09:44:21;11.10;99.90
17053;DHT22;8643;48.824;11.422;2023-10-31T09:46:51;11.00;99.90
17053;DHT22;8643;48.824;11.422;2023-10-31T09:49:22;11.00;99.90
17053;DHT22;8643;48.824;11.422;2023-10-31T09:51:51;10.90;99.90
17053;DHT22;8643;48.824;11.422;2023-10-31T09:54:20;10.90;99.90
17053;DHT22;8643;48.824;11.422;2023-10-31T09:56:50;10.90;99.90
17053;DHT22;8643;48.824;11.422;2023-10-31T09:59:19;10.80;99.90
17053;DHT22;8643;48.824;11.422;2023-10-31T10:01:47;10.80;99.90
17053;DHT22;8643;48.824;11.422;2023-10-31T10:04:17;10.80;99.90
17053;DHT22;8643;48.824;11.422;2023-10-31T10:06:51;10.70;99.90
17053;DHT22;8643;48.824;11.422;2023-10-31T10:09:26;10.60;99.90
17053;DHT22;8643;48.824;11.422;2023-10-31T10:11:56;10.50;99.90
17053;DHT22;8643;48.824;11.422;2023-10-31T10:14:27;10.30;99.90
17053;DHT22;8643;48.824;11.422;2023-10-31T10:16:58;10.20;99.90
17053;DHT22;8643;48.824;11.422;2023-10-31T10:19:27;10.20;99.90
17053;DHT22;8643;48.824;11.422;2023-10-31T10:21:58;10.10;99.90
17053;DHT22;8643;48.824;11.422;2023-10-31T10:24:27;10.20;99.90
17053;DHT22;8643;48.824;11.422;2023-10-31T10:26:55;10.10;99.90
17053;DHT22;8643;48.824;11.422;2023-10-31T10:29:24;10.10;99.90
17053;DHT22;8643;48.824;11.422;2023-10-31T10:31:53;10.20;99.90
17053;DHT22;8643;48.824;11.422;2023-10-31T10:34:22;10.20;99.90
17053;DHT22;8643;48.824;11.422;2023-10-31T10:36:53;10.30;99.90
17053;DHT22;8643;48.824;11.422;2023-10-31T10:39:24;10.40;99.90
17053;DHT22;8643;48.824;11.422;2023-10-31T10:41:55;10.50;99.90
17053;DHT22;8643;48.824;11.422;2023-10-31T10:44:32;10.50;99.90
17053;DHT22;8643;48.824;11.422;2023-10-31T10:47:04;10.60;99.90
17053;DHT22;8643;48.824;11.422;2023-10-31T10:49:35;10.80;99.90
17053;DHT22;8643;48.824;11.422;2023-10-31T10:52:17;10.90;99.90
17053;DHT22;8643;48.824;11.422;2023-10-31T10:54:53;11.00;99.90
17053;DHT22;8643;48.824;11.422;2023-10-31T10:57:32;11.10;99.90
17053;DHT22;8643;48.824;11.422;2023-10-31T11:02:40;11.10;99.90
17053;DHT22;8643;48.824;11.422;2023-10-31T11:05:10;11.10;99.90
17053;DHT22;8643;48.824;11.422;2023-10-31T11:07:40;11.10;99.90
17053;DHT22;8643;48.824;11.422;2023-10-31T11:10:11;11.00;99.90
17053;DHT22;8643;48.824;11.422;2023-10-31T11:12:40;11.00;99.90
17053;DHT22;8643;48.824;11.422;2023-10-31T11:15:12;11.00;99.90
17053;DHT22;8643;48.824;11.422;2023-10-31T11:17:44;11.00;99.90
17053;DHT22;8643;48.824;11.422;2023-10-31T11:20:16;11.00;99.90
17053;DHT22;8643;48.824;11.422;2023-10-31T11:22:46;10.90;99.90
17053;DHT22;8643;48.824;11.422;2023-10-31T11:25:19;10.90;99.90
17053;DHT22;8643;48.824;11.422;2023-10-31T11:28:11;10.90;99.90
17053;DHT22;8643;48.824;11.422;2023-10-31T11:30:41;10.90;99.90
17053;DHT22;8643;48.824;11.422;2023-10-31T11:33:14;11.10;99.90
17053;DHT22;8643;48.824;11.422;2023-10-31T11:35:44;11.10;99.90
17053;DHT22;8643;48.824;11.422;2023-10-31T11:38:31;11.20;99.90
17053;DHT22;8643;48.824;11.422;2023-10-31T11:41:02;11.30;99.90
17053;DHT22;8643;48.824;11.422;2023-10-31T11:43:55;11.40;99.90
17053;DHT22;8643;48.824;11.422;2023-10-31T11:46:24;11.40;99.90
17053;DHT22;8643;48.824;11.422;2023-10-31T11:48:54;11.50;99.90
17053;DHT22;8643;48.824;11.422;2023-10-31T11:51:24;11.50;99.90
17053;DHT22;8643;48.824;11.422;2023-10-31T11:53:56;11.60;99.90
17053;DHT22;8643;48.824;11.422;2023-10-31T11:56:24;11.60;99.90
17053;DHT22;8643;48.824;11.422;2023-10-31T11:59:02;11.70;99.90
17053;DHT22;8643;48.824;11.422;2023-10-31T12:01:33;10.40;99.90
17053;DHT22;8643;48.824;11.422;2023-10-31T12:04:02;11.60;99.90
17053;DHT22;8643;48.824;11.422;2023-10-31T12:09:04;11.90;99.90
17053;DHT22;8643;48.824;11.422;2023-10-31T12:11:36;11.90;99.90
17053;DHT22;8643;48.824;11.422;2023-10-31T12:14:18;11.90;99.90
17053;DHT22;8643;48.824;11.422;2023-10-31T12:16:47;11.90;99.90
17053;DHT22;8643;48.824;11.422;2023-10-31T12:19:20;12.00;99.90
17053;DHT22;8643;48.824;11.422;2023-10-31T12:21:50;12.00;99.90
17053;DHT22;8643;48.824;11.422;2023-10-31T12:24:20;12.00;99.90
17053;DHT22;8643;48.824;11.422;2023-10-31T12:26:49;11.90;99.90
17053;DHT22;8643;48.824;11.422;2023-10-31T12:29:19;12.10;99.90
17053;DHT22;8643;48.824;11.422;2023-10-31T12:31:50;12.20;99.90
17053;DHT22;8643;48.824;11.422;2023-10-31T12:34:23;12.40;99.90
17053;DHT22;8643;48.824;11.422;2023-10-31T12:36:53;12.50;99.90
17053;DHT22;8643;48.824;11.422;2023-10-31T12:39:25;12.40;99.90
17053;DHT22;8643;48.824;11.422;2023-10-31T12:41:56;12.40;99.90
17053;DHT22;8643;48.824;11.422;2023-10-31T12:44:26;12.40;99.90
17053;DHT22;8643;48.824;11.422;2023-10-31T12:46:56;12.40;99.90
17053;DHT22;8643;48.824;11.422;2023-10-31T12:49:25;12.50;99.90
17053;DHT22;8643;48.824;11.422;2023-10-31T12:51:56;12.50;99.90
17053;DHT22;8643;48.824;11.422;2023-10-31T12:54:30;12.40;99.90
17053;DHT22;8643;48.824;11.422;2023-10-31T12:57:00;12.40;99.90
17053;DHT22;8643;48.824;11.422;2023-10-31T12:59:31;12.50;99.90
17053;DHT22;8643;48.824;11.422;2023-10-31T13:02:00;12.40;99.90
17053;DHT22;8643;48.824;11.422;2023-10-31T13:04:31;12.50;99.90
17053;DHT22;8643;48.824;11.422;2023-10-31T13:07:02;12.50;99.90
17053;DHT22;8643;48.824;11.422;2023-10-31T13:09:35;12.50;99.90
17053;DHT22;8643;48.824;11.422;2023-10-31T13:12:07;12.50;99.90
17053;DHT22;8643;48.824;11.422;2023-10-31T13:14:37;12.50;99.90
17053;DHT22;8643;48.824;11.422;2023-10-31T13:17:07;12.60;99.90
17053;DHT22;8643;48.824;11.422;2023-10-31T13:19:36;12.60;99.90
17053;DHT22;8643;48.824;11.422;2023-10-31T13:22:04;12.50;99.90
17053;DHT22;8643;48.824;11.422;2023-10-31T13:24:34;12.40;99.90
17053;DHT22;8643;48.824;11.422;2023-10-31T13:27:03;12.40;99.90
17053;DHT22;8643;48.824;11.422;2023-10-31T13:29:33;12.20;99.90
17053;DHT22;8643;48.824;11.422;2023-10-31T13:32:02;12.20;99.90
17053;DHT22;8643;48.824;11.422;2023-10-31T13:34:30;12.20;99.90
17053;DHT22;8643;48.824;11.422;2023-10-31T13:37:00;12.10;99.90
17053;DHT22;8643;48.824;11.422;2023-10-31T13:39:29;12.10;99.90
17053;DHT22;8643;48.824;11.422;2023-10-31T13:41:59;12.00;99.90
17053;DHT22;8643;48.824;11.422;2023-10-31T13:44:27;12.00;99.90
17053;DHT22;8643;48.824;11.422;2023-10-31T13:46:56;12.00;99.90
17053;DHT22;8643;48.824;11.422;2023-10-31T13:49:24;12.10;99.90
17053;DHT22;8643;48.824;11.422;2023-10-31T13:51:53;12.10;99.90
17053;DHT22;8643;48.824;11.422;2023-10-31T13:54:21;12.10;99.90
17053;DHT22;8643;48.824;11.422;2023-10-31T13:56:50;12.10;99.90
17053;DHT22;8643;48.824;11.422;2023-10-31T13:59:20;12.10;99.90
17053;DHT22;8643;48.824;11.422;2023-10-31T14:01:49;12.10;99.90
17053;DHT22;8643;48.824;11.422;2023-10-31T14:04:18;12.20;99.90
17053;DHT22;8643;48.824;11.422;2023-10-31T14:06:47;12.30;99.90
17053;DHT22;8643;48.824;11.422;2023-10-31T14:09:16;12.30;99.90
17053;DHT22;8643;48.824;11.422;2023-10-31T14:11:44;12.50;99.90
17053;DHT22;8643;48.824;11.422;2023-10-31T14:14:13;12.60;99.90
17053;DHT22;8643;48.824;11.422;2023-10-31T14:16:43;12.70;99.90
17053;DHT22;8643;48.824;11.422;2023-10-31T14:19:13;12.80;99.90
17053;DHT22;8643;48.824;11.422;2023-10-31T14:21:43;12.90;99.90
17053;DHT22;8643;48.824;11.422;2023-10-31T14:24:11;13.20;99.90
17053;DHT22;8643;48.824;11.422;2023-10-31T14:26:40;13.20;99.90
17053;DHT22;8643;48.824;11.422;2023-10-31T14:29:11;13.60;99.90
17053;DHT22;8643;48.824;11.422;2023-10-31T14:31:40;13.60;99.90
17053;DHT22;8643;48.824;11.422;2023-10-31T14:34:11;13.60;99.90
17053;DHT22;8643;48.824;11.422;2023-10-31T14:36:39;13.30;99.90
17053;DHT22;8643;48.824;11.422;2023-10-31T14:39:08;13.00;99.90
17053;DHT22;8643;48.824;11.422;2023-10-31T14:41:38;12.60;99.90
17053;DHT22;8643;48.824;11.422;2023-10-31T14:44:07;12.70;99.90
17053;DHT22;8643;48.824;11.422;2023-10-31T14:46:36;12.50;99.90
17053;DHT22;8643;48.824;11.422;2023-10-31T14:49:05;12.40;99.90
17053;DHT22;8643;48.824;11.422;2023-10-31T14:51:34;12.40;99.90
17053;DHT22;8643;48.824;11.422;2023-10-31T14:54:04;12.40;99.90
17053;DHT22;8643;48.824;11.422;2023-10-31T14:56:33;12.40;99.90
17053;DHT22;8643;48.824;11.422;2023-10-31T14:59:03;12.30;99.90
17053;DHT22;8643;48.824;11.422;2023-10-31T15:01:32;12.30;99.90
17053;DHT22;8643;48.824;11.422;2023-10-31T15:04:01;12.30;99.90
17053;DHT22;8643;48.824;11.422;2023-10-31T15:06:30;12.20;99.90
17053;DHT22;8643;48.824;11.422;2023-10-31T15:09:00;12.10;99.90
17053;DHT22;8643;48.824;11.422;2023-10-31T15:11:29;12.00;99.90
17053;DHT22;8643;48.824;11.422;2023-10-31T15:13:58;11.90;99.90
17053;DHT22;8643;48.824;11.422;2023-10-31T15:16:26;11.80;99.90
17053;DHT22;8643;48.824;11.422;2023-10-31T15:18:55;11.70;99.90
17053;DHT22;8643;48.824;11.422;2023-10-31T15:21:23;11.60;99.90
17053;DHT22;8643;48.824;11.422;2023-10-31T15:23:52;11.70;99.90
17053;DHT22;8643;48.824;11.422;2023-10-31T15:26:25;11.60;99.90
17053;DHT22;8643;48.824;11.422;2023-10-31T15:28:53;11.50;99.90
17053;DHT22;8643;48.824;11.422;2023-10-31T15:31:22;11.50;99.90
17053;DHT22;8643;48.824;11.422;2023-10-31T15:33:50;11.50;99.90
17053;DHT22;8643;48.824;11.422;2023-10-31T15:36:19;11.40;99.90
17053;DHT22;8643;48.824;11.422;2023-10-31T15:38:47;11.40;99.90
17053;DHT22;8643;48.824;11.422;2023-10-31T15:41:17;11.40;99.90
17053;DHT22;8643;48.824;11.422;2023-10-31T15:43:50;11.40;99.90
17053;DHT22;8643;48.824;11.422;2023-10-31T15:46:19;11.30;99.90
17053;DHT22;8643;48.824;11.422;2023-10-31T15:48:48;11.30;99.90
17053;DHT22;8643;48.824;11.422;2023-10-31T15:51:17;11.30;99.90
17053;DHT22;8643;48.824;11.422;2023-10-31T15:53:45;11.20;99.90
17053;DHT22;8643;48.824;11.422;2023-10-31T15:56:14;11.20;99.90
17053;DHT22;8643;48.824;11.422;2023-10-31T15:58:42;11.00;99.90
17053;DHT22;8643;48.824;11.422;2023-10-31T16:01:13;11.00;99.90